San Francisco, California
Traffic Map
Current Weather Conditions
San Francisco, California
Overcast Light Rain
Overcast
11°
Feels Like: 11°
Wind Chill: 11° Ceiling: 3300
Heat Index: 11° Visibility: 9mi
Dew Point: Wind: 6mph
Humidity: 80% Direction: 240° (WSW)
Pressure: 30.22in Gusts: 0mph
Raw Report DataKSFO 220334Z 24005KT 9SM -RA FEW018 BKN033 OVC041 11/08 A3022 RMK AO2 P0003 T01110078 $
Traffic Incident Summary
Active as of:
Severity:
Category:
InformationThere was an issue retrieving the traffic information for this location. Please try a different location or try again shortly.
Advertisements
Track Severe Weather on mobile